Time;durP1;ratioP1;P1;durP2;ratioP2;P2;SDS_P1;SDS_P2;PMS_P1;PMS_P2;Temp;Humidity;BMP_temperature;BMP_pressure;BME280_temperature;BME280_humidity;BME280_pressure;Samples;Min_cycle;Max_cycle;Signal;HPM_P1;HPM_P2
2023/08/31 00:02:13;;;;;;;32.95;22.45;;;;;;;-148.88;100.00;-17125.47;4996642;28;20034;-77
2023/08/31 00:04:38;;;;;;;30.42;21.08;;;;;;;-148.88;100.00;-17125.47;4996166;28;20096;-77
2023/08/31 00:07:04;;;;;;;32.85;20.98;;;;;;;-148.88;100.00;-17125.47;4996214;28;20022;-78
2023/08/31 00:09:29;;;;;;;29.95;21.33;;;;;;;-148.88;100.00;-17125.47;4996466;28;20113;-77
2023/08/31 00:11:56;;;;;;;31.85;21.38;;;;;;;-148.88;100.00;-17125.47;4996638;28;20110;-77
2023/08/31 00:14:22;;;;;;;27.20;21.10;;;;;;;-148.88;100.00;-17125.47;4996128;28;20110;-77
2023/08/31 00:16:47;;;;;;;28.80;20.10;;;;;;;-148.88;100.00;-17125.47;4996173;28;20030;-77
2023/08/31 00:19:14;;;;;;;33.47;20.63;;;;;;;-148.88;100.00;-17125.47;4996368;28;20092;-77
2023/08/31 00:21:39;;;;;;;28.10;20.85;;;;;;;-148.88;100.00;-17125.47;4996329;28;20022;-77
2023/08/31 00:24:05;;;;;;;27.35;20.33;;;;;;;-148.88;100.00;-17125.47;4996199;28;20084;-78
2023/08/31 00:26:31;;;;;;;30.83;20.85;;;;;;;-148.88;100.00;-17125.47;4996254;28;20018;-78
2023/08/31 00:28:58;;;;;;;28.98;19.60;;;;;;;-148.88;100.00;-17125.47;4996285;28;20054;-77
2023/08/31 00:31:23;;;;;;;32.33;20.77;;;;;;;-148.88;100.00;-17125.47;4994990;28;20033;-78
2023/08/31 00:33:49;;;;;;;32.53;20.25;;;;;;;-148.88;100.00;-17125.47;4996131;28;20057;-77
2023/08/31 00:36:14;;;;;;;28.10;19.65;;;;;;;-148.88;100.00;-17125.47;4994463;28;20112;-78
2023/08/31 00:38:40;;;;;;;30.90;20.38;;;;;;;-148.88;100.00;-17125.47;4995746;28;20374;-77
2023/08/31 00:41:05;;;;;;;32.40;20.17;;;;;;;-148.88;100.00;-17125.47;4995667;28;20062;-77
2023/08/31 00:43:31;;;;;;;30.42;20.80;;;;;;;-148.88;100.00;-17125.47;4995404;28;20157;-77
2023/08/31 00:45:58;;;;;;;27.67;19.35;;;;;;;-148.88;100.00;-17125.47;4994244;28;20057;-77
2023/08/31 00:48:24;;;;;;;27.15;19.13;;;;;;;-148.88;100.00;-17125.47;4994193;28;20054;-77
2023/08/31 00:50:50;;;;;;;32.67;20.25;;;;;;;-148.88;100.00;-17125.47;4994179;28;20461;-77
2023/08/31 00:53:16;;;;;;;27.65;19.48;;;;;;;-148.88;100.00;-17125.47;4995420;28;20037;-78
2023/08/31 00:55:44;;;;;;;33.88;19.08;;;;;;;-148.88;100.00;-17125.47;4994078;28;20026;-77
2023/08/31 00:58:09;;;;;;;34.08;19.83;;;;;;;-148.88;100.00;-17125.47;4995251;28;20022;-77
2023/08/31 01:00:50;;;;;;;26.55;18.30;;;;;;;-148.88;100.00;-17125.47;4995424;28;20041;-77
2023/08/31 01:03:24;;;;;;;26.08;18.50;;;;;;;-148.88;100.00;-17125.47;4995103;28;20061;-77
2023/08/31 01:06:17;;;;;;;32.10;19.05;;;;;;;-148.88;100.00;-17125.47;4995429;28;20037;-77
2023/08/31 01:09:03;;;;;;;32.90;18.05;;;;;;;-148.88;100.00;-17125.47;4964965;28;20049;-78
2023/08/31 01:11:41;;;;;;;30.33;19.58;;;;;;;-148.88;100.00;-17125.47;4993870;28;20023;-79
2023/08/31 01:14:15;;;;;;;32.17;18.83;;;;;;;-148.88;100.00;-17125.47;4994060;28;20033;-77
2023/08/31 01:16:43;;;;;;;28.70;19.23;;;;;;;-148.88;100.00;-17125.47;4995271;28;20022;-77
2023/08/31 01:19:35;;;;;;;32.28;19.17;;;;;;;-148.88;100.00;-17125.47;4994831;28;20519;-77
2023/08/31 01:22:05;;;;;;;26.67;18.98;;;;;;;-148.88;100.00;-17125.47;4994881;28;20033;-77
2023/08/31 01:24:31;;;;;;;30.52;19.13;;;;;;;-148.88;100.00;-17125.47;4995053;28;20026;-77
2023/08/31 01:26:57;;;;;;;27.58;18.75;;;;;;;-148.88;100.00;-17125.47;4994594;28;20041;-77
2023/08/31 01:29:23;;;;;;;27.33;18.95;;;;;;;-148.88;100.00;-17125.47;4994839;28;20026;-77
2023/08/31 01:31:48;;;;;;;28.00;18.08;;;;;;;-148.88;100.00;-17125.47;4994786;28;20483;-77
2023/08/31 01:34:13;;;;;;;26.98;17.73;;;;;;;-148.88;100.00;-17125.47;4993449;28;20034;-77
2023/08/31 01:36:46;;;;;;;27.17;17.05;;;;;;;-148.88;100.00;-17125.47;4994892;28;20381;-77
2023/08/31 01:39:26;;;;;;;26.85;16.80;;;;;;;-148.88;100.00;-17125.47;4995040;28;20109;-77
2023/08/31 01:41:56;;;;;;;24.40;15.75;;;;;;;-148.88;100.00;-17125.47;4993307;28;20023;-77
2023/08/31 01:44:23;;;;;;;24.05;15.50;;;;;;;-148.88;100.00;-17125.47;4994896;28;20030;-77
2023/08/31 01:46:53;;;;;;;21.52;15.55;;;;;;;-148.88;100.00;-17125.47;4994432;28;20037;-77
2023/08/31 01:49:19;;;;;;;23.65;16.75;;;;;;;-148.88;100.00;-17125.47;4992823;28;20022;-77
2023/08/31 01:51:45;;;;;;;22.40;14.57;;;;;;;-148.88;100.00;-17125.47;4994849;28;20022;-77
2023/08/31 01:54:10;;;;;;;25.52;15.07;;;;;;;-148.88;100.00;-17125.47;4994322;28;20049;-78
2023/08/31 01:56:35;;;;;;;21.02;15.50;;;;;;;-148.88;100.00;-17125.47;4994296;28;20393;-77
2023/08/31 01:59:01;;;;;;;21.42;15.50;;;;;;;-148.88;100.00;-17125.47;4994083;28;20117;-77
2023/08/31 02:01:26;;;;;;;21.55;14.93;;;;;;;-148.88;100.00;-17125.47;4994200;28;20105;-77
2023/08/31 02:03:52;;;;;;;21.45;14.60;;;;;;;-148.88;100.00;-17125.47;4994201;28;20395;-77
2023/08/31 02:06:19;;;;;;;24.30;14.80;;;;;;;-148.88;100.00;-17125.47;4993954;28;20053;-77
2023/08/31 02:08:47;;;;;;;21.48;14.00;;;;;;;-148.88;100.00;-17125.47;4992474;28;20137;-77
2023/08/31 02:11:12;;;;;;;21.85;15.05;;;;;;;-148.88;100.00;-17125.47;4992527;28;20026;-77
2023/08/31 02:13:38;;;;;;;19.42;14.23;;;;;;;-148.88;100.00;-17125.47;4993478;28;20182;-77
2023/08/31 02:16:04;;;;;;;22.45;14.88;;;;;;;-148.88;100.00;-17125.47;4993863;28;20481;-77
2023/08/31 02:18:29;;;;;;;23.45;14.52;;;;;;;-148.88;100.00;-17125.47;4992518;28;20396;-77
2023/08/31 02:20:54;;;;;;;22.52;14.57;;;;;;;-148.88;100.00;-17125.47;4994276;28;20033;-77
2023/08/31 02:23:20;;;;;;;24.05;14.25;;;;;;;-148.88;100.00;-17125.47;4994067;28;20092;-77
2023/08/31 02:25:45;;;;;;;22.45;14.52;;;;;;;-148.88;100.00;-17125.47;4993943;28;20033;-77
2023/08/31 02:28:11;;;;;;;23.85;14.18;;;;;;;-148.88;100.00;-17125.47;4992506;28;20025;-77
2023/08/31 02:30:36;;;;;;;22.33;13.93;;;;;;;-148.88;100.00;-17125.47;4993788;28;20026;-77
2023/08/31 02:33:02;;;;;;;20.75;14.82;;;;;;;-148.88;100.00;-17125.47;4993690;28;20025;-77
2023/08/31 02:35:27;;;;;;;19.35;13.65;;;;;;;-148.88;100.00;-17125.47;4993692;28;20429;-77
2023/08/31 02:37:52;;;;;;;19.88;14.45;;;;;;;-148.88;100.00;-17125.47;4993514;28;20478;-77
2023/08/31 02:40:18;;;;;;;19.05;14.13;;;;;;;-148.88;100.00;-17125.47;4993762;28;20026;-77
2023/08/31 02:42:43;;;;;;;26.52;14.85;;;;;;;-148.88;100.00;-17125.47;4993557;28;20026;-77
2023/08/31 02:45:09;;;;;;;25.17;15.07;;;;;;;-148.88;100.00;-17125.47;4993358;28;20030;-77
2023/08/31 02:47:34;;;;;;;22.50;14.93;;;;;;;-148.88;100.00;-17125.47;4993176;28;20048;-77
2023/08/31 02:49:59;;;;;;;24.02;17.02;;;;;;;-148.88;100.00;-17125.47;4993320;28;20073;-77
2023/08/31 02:52:25;;;;;;;24.40;16.85;;;;;;;-148.88;100.00;-17125.47;4993225;28;20029;-77
2023/08/31 02:54:51;;;;;;;24.42;16.35;;;;;;;-148.88;100.00;-17125.47;4993351;28;20026;-77
2023/08/31 02:57:19;;;;;;;20.95;16.73;;;;;;;-148.88;100.00;-17125.47;4993243;28;20040;-77
2023/08/31 02:59:46;;;;;;;24.10;17.27;;;;;;;-148.88;100.00;-17125.47;4993403;28;20101;-77
2023/08/31 03:02:11;;;;;;;27.73;17.70;;;;;;;-148.88;100.00;-17125.47;4993268;28;20034;-77
2023/08/31 03:04:37;;;;;;;23.80;16.70;;;;;;;-148.88;100.00;-17125.47;4993225;28;20101;-77
2023/08/31 03:07:04;;;;;;;21.38;16.80;;;;;;;-148.88;100.00;-17125.47;4993120;28;20030;-77
2023/08/31 03:09:29;;;;;;;23.15;16.92;;;;;;;-148.88;100.00;-17125.47;4993201;28;20030;-77
2023/08/31 03:11:54;;;;;;;25.05;16.48;;;;;;;-148.88;100.00;-17125.47;4993198;28;20027;-77
2023/08/31 03:14:20;;;;;;;25.00;16.30;;;;;;;-148.88;100.00;-17125.47;4993189;28;20037;-77
2023/08/31 03:16:45;;;;;;;29.70;16.83;;;;;;;-148.88;100.00;-17125.47;4993503;28;20022;-77
2023/08/31 03:19:10;;;;;;;24.73;16.42;;;;;;;-148.88;100.00;-17125.47;4992985;28;20062;-77
2023/08/31 03:21:36;;;;;;;21.55;17.35;;;;;;;-148.88;100.00;-17125.47;4991679;28;20029;-78
2023/08/31 03:24:02;;;;;;;23.08;16.95;;;;;;;-148.88;100.00;-17125.47;4993139;28;20026;-77
2023/08/31 03:26:27;;;;;;;20.38;15.55;;;;;;;-148.88;100.00;-17125.47;4995961;28;20050;-77
2023/08/31 03:28:52;;;;;;;21.25;16.95;;;;;;;-148.88;100.00;-17125.47;4996975;28;20088;-77
2023/08/31 03:31:18;;;;;;;24.73;17.13;;;;;;;-148.88;100.00;-17125.47;4995671;28;20034;-77
2023/08/31 03:33:43;;;;;;;25.05;17.98;;;;;;;-148.88;100.00;-17125.47;4995585;28;20081;-77
2023/08/31 03:36:11;;;;;;;25.92;18.15;;;;;;;-148.88;100.00;-17125.47;4997279;28;20401;-77
2023/08/31 03:38:40;;;;;;;26.13;17.60;;;;;;;-148.88;100.00;-17125.47;4997915;28;20026;-83
2023/08/31 03:41:06;;;;;;;28.65;17.75;;;;;;;-148.88;100.00;-17125.47;4999019;28;20509;-78
2023/08/31 03:43:31;;;;;;;27.13;18.27;;;;;;;-148.88;100.00;-17125.47;4999410;28;20474;-78
2023/08/31 03:45:59;;;;;;;24.90;17.83;;;;;;;-148.88;100.00;-17125.47;5000099;28;20018;-78
2023/08/31 03:48:26;;;;;;;30.98;18.58;;;;;;;-148.88;100.00;-17125.47;4999266;28;20034;-78
2023/08/31 03:50:53;;;;;;;25.98;18.88;;;;;;;-148.88;100.00;-17125.47;4998407;28;20036;-79
2023/08/31 03:53:18;;;;;;;25.92;18.13;;;;;;;-148.88;100.00;-17125.47;4999592;28;20030;-79
2023/08/31 03:55:44;;;;;;;24.00;18.08;;;;;;;-148.88;100.00;-17125.47;4999690;28;20084;-79
2023/08/31 03:58:10;;;;;;;27.98;18.17;;;;;;;-148.88;100.00;-17125.47;5001432;28;20112;-78
2023/08/31 04:00:36;;;;;;;24.73;19.00;;;;;;;-148.88;100.00;-17125.47;5001621;28;20033;-79
2023/08/31 04:03:02;;;;;;;25.60;19.67;;;;;;;-148.88;100.00;-17125.47;5001725;28;20213;-77
2023/08/31 04:05:28;;;;;;;28.17;19.23;;;;;;;-148.88;100.00;-17125.47;4999934;28;20552;-78
2023/08/31 04:07:53;;;;;;;26.25;19.45;;;;;;;-148.88;100.00;-17125.47;5000310;28;20102;-78
2023/08/31 04:10:19;;;;;;;27.45;19.40;;;;;;;-148.88;100.00;-17125.47;5000053;28;20030;-78
2023/08/31 04:12:44;;;;;;;24.15;19.02;;;;;;;-148.88;100.00;-17125.47;4999532;28;20104;-79
2023/08/31 04:15:09;;;;;;;30.98;21.90;;;;;;;-148.88;100.00;-17125.47;4999926;28;20018;-79
2023/08/31 04:17:35;;;;;;;29.38;21.20;;;;;;;-148.88;100.00;-17125.47;4999780;28;20018;-79
2023/08/31 04:20:00;;;;;;;27.80;21.42;;;;;;;-148.88;100.00;-17125.47;4999507;28;20057;-78
2023/08/31 04:22:26;;;;;;;33.97;22.85;;;;;;;-148.88;100.00;-17125.47;5000301;28;20050;-81
2023/08/31 04:24:53;;;;;;;30.30;23.02;;;;;;;-148.88;100.00;-17125.47;5000209;28;20090;-78
2023/08/31 04:27:18;;;;;;;32.35;24.42;;;;;;;-148.88;100.00;-17125.47;4999982;28;20080;-80
2023/08/31 04:29:44;;;;;;;33.60;25.70;;;;;;;-148.88;100.00;-17125.47;4999322;28;20034;-80
2023/08/31 04:32:09;;;;;;;36.72;27.63;;;;;;;-148.88;100.00;-17125.47;4997804;28;20525;-80
2023/08/31 04:34:35;;;;;;;35.13;27.17;;;;;;;-148.88;100.00;-17125.47;4998007;28;20026;-78
2023/08/31 04:37:01;;;;;;;42.30;29.67;;;;;;;-148.88;100.00;-17125.47;4998686;28;20477;-80
2023/08/31 04:39:27;;;;;;;43.85;30.95;;;;;;;-148.88;100.00;-17125.47;4998922;28;20022;-79
2023/08/31 04:41:52;;;;;;;41.05;31.27;;;;;;;-148.88;100.00;-17125.47;4999418;28;20085;-78
2023/08/31 04:44:17;;;;;;;44.72;33.35;;;;;;;-148.88;100.00;-17125.47;4999711;28;20022;-79
2023/08/31 04:46:43;;;;;;;43.70;32.85;;;;;;;-148.88;100.00;-17125.47;4999170;28;20032;-79
2023/08/31 04:49:08;;;;;;;40.88;33.20;;;;;;;-148.88;100.00;-17125.47;4999222;28;20046;-78
2023/08/31 04:51:37;;;;;;;43.30;34.45;;;;;;;-148.88;100.00;-17125.47;5000025;28;20053;-80
2023/08/31 04:54:02;;;;;;;48.72;34.83;;;;;;;-148.88;100.00;-17125.47;4997553;28;20019;-79
2023/08/31 04:56:32;;;;;;;45.20;33.78;;;;;;;-148.88;100.00;-17125.47;4999584;28;20030;-79
2023/08/31 04:58:58;;;;;;;47.17;34.30;;;;;;;-148.88;100.00;-17125.47;4999353;28;20026;-79
2023/08/31 05:01:24;;;;;;;47.40;35.05;;;;;;;-148.88;100.00;-17125.47;4999779;28;20038;-78
2023/08/31 05:03:49;;;;;;;46.85;36.55;;;;;;;-148.88;100.00;-17125.47;4997616;28;20413;-80
2023/08/31 05:06:15;;;;;;;45.90;35.58;;;;;;;-148.88;100.00;-17125.47;4999779;28;20092;-79
2023/08/31 05:08:40;;;;;;;49.90;37.47;;;;;;;-148.88;100.00;-17125.47;4999223;28;20342;-78
2023/08/31 05:11:06;;;;;;;47.33;38.20;;;;;;;-148.88;100.00;-17125.47;4997422;28;20463;-78
2023/08/31 05:13:32;;;;;;;54.40;41.00;;;;;;;-148.88;100.00;-17125.47;4998655;28;20030;-78
2023/08/31 05:15:57;;;;;;;54.40;39.55;;;;;;;-148.88;100.00;-17125.47;4998867;28;20444;-78
2023/08/31 05:18:23;;;;;;;55.40;40.70;;;;;;;-148.88;100.00;-17125.47;4999148;28;20441;-78
2023/08/31 05:20:49;;;;;;;53.92;41.40;;;;;;;-148.88;100.00;-17125.47;4998349;28;20539;-79
2023/08/31 05:23:15;;;;;;;50.58;40.67;;;;;;;-148.88;100.00;-17125.47;4996677;28;20044;-80
2023/08/31 05:25:44;;;;;;;57.60;42.05;;;;;;;-148.88;100.00;-17125.47;4997389;28;20041;-78
2023/08/31 05:28:10;;;;;;;53.83;41.17;;;;;;;-148.88;100.00;-17125.47;4997010;28;20027;-79
2023/08/31 05:30:36;;;;;;;55.20;42.65;;;;;;;-148.88;100.00;-17125.47;4998734;28;20030;-79
2023/08/31 05:33:01;;;;;;;52.10;41.90;;;;;;;-148.88;100.00;-17125.47;4997567;28;20026;-80
2023/08/31 05:35:27;;;;;;;58.63;43.15;;;;;;;-148.88;100.00;-17125.47;4998649;28;20500;-78
2023/08/31 05:37:52;;;;;;;55.30;42.10;;;;;;;-148.88;100.00;-17125.47;4998708;28;20022;-80
2023/08/31 05:40:18;;;;;;;54.92;41.72;;;;;;;-148.88;100.00;-17125.47;4998193;28;20026;-80
2023/08/31 05:42:44;;;;;;;55.85;43.40;;;;;;;-148.88;100.00;-17125.47;4998765;28;20030;-79
2023/08/31 05:45:10;;;;;;;56.50;41.85;;;;;;;-148.88;100.00;-17125.47;4998840;28;20030;-79
2023/08/31 05:47:35;;;;;;;58.67;43.95;;;;;;;-148.88;100.00;-17125.47;4996561;28;20461;-78
2023/08/31 05:50:01;;;;;;;60.22;45.60;;;;;;;-148.88;100.00;-17125.47;4996515;28;20134;-79
2023/08/31 05:52:27;;;;;;;61.25;46.10;;;;;;;-148.88;100.00;-17125.47;4997562;28;20027;-80
2023/08/31 05:54:52;;;;;;;65.22;46.78;;;;;;;-148.88;100.00;-17125.47;4998308;28;20034;-79
2023/08/31 05:57:19;;;;;;;58.40;44.92;;;;;;;-148.88;100.00;-17125.47;4997761;28;20045;-79
2023/08/31 05:59:45;;;;;;;66.95;48.22;;;;;;;-148.88;100.00;-17125.47;4998553;28;20030;-80
2023/08/31 06:02:10;;;;;;;64.00;48.05;;;;;;;-148.88;100.00;-17125.47;4999305;28;20061;-79
2023/08/31 06:04:36;;;;;;;63.60;47.95;;;;;;;-148.88;100.00;-17125.47;4997551;28;20040;-78
2023/08/31 06:07:02;;;;;;;70.47;47.80;;;;;;;-148.88;100.00;-17125.47;4996172;28;20203;-79
2023/08/31 06:09:27;;;;;;;68.22;48.05;;;;;;;-148.88;100.00;-17125.47;4997242;28;20489;-80
2023/08/31 06:11:52;;;;;;;64.85;47.67;;;;;;;-148.88;100.00;-17125.47;4996944;28;20033;-79
2023/08/31 06:14:19;;;;;;;60.88;45.88;;;;;;;-148.88;100.00;-17125.47;4997751;28;20022;-79
2023/08/31 06:16:44;;;;;;;60.45;45.45;;;;;;;-148.88;100.00;-17125.47;4996223;28;20022;-77
2023/08/31 06:19:10;;;;;;;63.65;46.03;;;;;;;-148.88;100.00;-17125.47;4997628;28;20022;-78
2023/08/31 06:21:35;;;;;;;62.25;47.08;;;;;;;-148.88;100.00;-17125.47;4996714;28;20030;-79
2023/08/31 06:24:01;;;;;;;59.17;46.17;;;;;;;-148.88;100.00;-17125.47;4996839;28;20374;-78
2023/08/31 06:26:27;;;;;;;60.67;45.40;;;;;;;-148.88;100.00;-17125.47;4994321;28;20050;-78
2023/08/31 06:28:52;;;;;;;58.45;45.63;;;;;;;-148.88;100.00;-17125.47;4994361;28;20026;-79
2023/08/31 06:31:19;;;;;;;59.38;44.58;;;;;;;-148.88;100.00;-17125.47;4996337;28;20157;-79
2023/08/31 06:33:44;;;;;;;54.55;41.35;;;;;;;-148.88;100.00;-17125.47;4996696;28;20033;-79
2023/08/31 06:36:09;;;;;;;56.38;42.40;;;;;;;-148.88;100.00;-17125.47;4997082;28;20030;-78
2023/08/31 06:38:35;;;;;;;55.78;42.05;;;;;;;-148.88;100.00;-17125.47;4997175;28;20022;-79
2023/08/31 06:41:04;;;;;;;55.10;42.28;;;;;;;-148.88;100.00;-17125.47;4996379;28;20029;-80
2023/08/31 06:43:29;;;;;;;54.20;41.55;;;;;;;-148.88;100.00;-17125.47;4996866;28;20113;-79
2023/08/31 06:45:55;;;;;;;55.63;42.00;;;;;;;-148.88;100.00;-17125.47;4995644;28;20054;-79
2023/08/31 06:48:21;;;;;;;54.47;40.55;;;;;;;-148.88;100.00;-17125.47;4995771;28;20030;-80
2023/08/31 06:50:47;;;;;;;51.28;40.17;;;;;;;-148.88;100.00;-17125.47;4995984;28;20133;-79
2023/08/31 06:53:12;;;;;;;48.33;38.65;;;;;;;-148.88;100.00;-17125.47;4997638;28;20485;-80
2023/08/31 06:55:40;;;;;;;47.53;39.30;;;;;;;-148.88;100.00;-17125.47;4997555;28;20034;-79
2023/08/31 06:58:05;;;;;;;50.72;39.22;;;;;;;-148.88;100.00;-17125.47;4996955;28;20097;-79
2023/08/31 07:00:32;;;;;;;49.33;38.65;;;;;;;-148.88;100.00;-17125.47;4995186;28;20437;-78
2023/08/31 07:02:58;;;;;;;50.85;40.10;;;;;;;-148.88;100.00;-17125.47;4995603;28;20029;-79
2023/08/31 07:05:25;;;;;;;49.42;37.88;;;;;;;-148.88;100.00;-17125.47;4995936;28;20026;-78
2023/08/31 07:07:54;;;;;;;47.67;38.10;;;;;;;-148.88;100.00;-17125.47;4995711;28;20021;-80
2023/08/31 07:10:20;;;;;;;50.55;38.45;;;;;;;-148.88;100.00;-17125.47;4996627;28;20026;-79
2023/08/31 07:12:45;;;;;;;44.50;35.75;;;;;;;-148.88;100.00;-17125.47;4995544;28;20023;-79
2023/08/31 07:15:11;;;;;;;45.55;36.45;;;;;;;-148.88;100.00;-17125.47;4997118;28;20029;-80
2023/08/31 07:17:36;;;;;;;46.53;37.53;;;;;;;-148.88;100.00;-17125.47;4995042;28;20029;-79
2023/08/31 07:20:05;;;;;;;42.92;34.88;;;;;;;-148.88;100.00;-17125.47;4997173;28;20495;-80
2023/08/31 07:22:33;;;;;;;40.30;34.00;;;;;;;-148.88;100.00;-17125.47;4996962;28;20030;-80
2023/08/31 07:24:58;;;;;;;43.47;36.13;;;;;;;-148.88;100.00;-17125.47;4997284;28;20369;-80
2023/08/31 07:27:24;;;;;;;46.55;37.05;;;;;;;-148.88;100.00;-17125.47;4995163;28;20121;-80
2023/08/31 07:29:49;;;;;;;41.63;32.92;;;;;;;-148.88;100.00;-17125.47;5000471;28;20113;-79
2023/08/31 07:32:15;;;;;;;43.20;34.88;;;;;;;-148.88;100.00;-17125.47;4999820;28;20026;-80
2023/08/31 07:34:40;;;;;;;40.90;33.42;;;;;;;-148.88;100.00;-17125.47;4998045;28;20117;-79
2023/08/31 07:37:06;;;;;;;37.05;31.08;;;;;;;-148.88;100.00;-17125.47;4995887;28;20026;-78
2023/08/31 07:39:31;;;;;;;39.08;33.03;;;;;;;-148.88;100.00;-17125.47;4995983;28;20022;-80
2023/08/31 07:41:57;;;;;;;33.58;29.92;;;;;;;-148.88;100.00;-17125.47;4997324;28;20033;-79
2023/08/31 07:44:23;;;;;;;40.05;31.92;;;;;;;-148.88;100.00;-17125.47;4996357;28;20033;-79
2023/08/31 07:46:48;;;;;;;36.97;30.33;;;;;;;-148.88;100.00;-17125.47;4997206;28;20033;-80
2023/08/31 07:49:13;;;;;;;34.03;28.80;;;;;;;-148.88;100.00;-17125.47;4998024;28;20038;-80
2023/08/31 07:51:39;;;;;;;38.10;31.08;;;;;;;-148.88;100.00;-17125.47;4996408;28;20073;-80
2023/08/31 07:54:05;;;;;;;35.50;30.60;;;;;;;-148.88;100.00;-17125.47;4997351;28;20022;-79
2023/08/31 07:56:30;;;;;;;34.70;29.17;;;;;;;-148.88;100.00;-17125.47;4997523;28;20041;-79
2023/08/31 07:58:56;;;;;;;33.50;29.25;;;;;;;-148.88;100.00;-17125.47;4997507;28;20042;-79
2023/08/31 08:01:21;;;;;;;37.10;28.73;;;;;;;-148.88;100.00;-17125.47;4995598;28;20473;-79
2023/08/31 08:03:47;;;;;;;33.42;29.60;;;;;;;-148.88;100.00;-17125.47;4997840;28;20072;-79
2023/08/31 08:06:13;;;;;;;34.10;29.95;;;;;;;-148.88;100.00;-17125.47;4995581;28;20023;-79
2023/08/31 08:08:39;;;;;;;36.42;29.55;;;;;;;-148.88;100.00;-17125.47;4995457;28;20030;-79
2023/08/31 08:11:05;;;;;;;35.10;31.10;;;;;;;-148.88;100.00;-17125.47;4996806;28;20164;-79
2023/08/31 08:13:30;;;;;;;36.25;31.88;;;;;;;-148.88;100.00;-17125.47;4995859;28;20045;-78
2023/08/31 08:15:55;;;;;;;33.42;29.70;;;;;;;-148.88;100.00;-17125.47;4998363;28;20026;-79
2023/08/31 08:18:21;;;;;;;34.10;28.85;;;;;;;-148.88;100.00;-17125.47;4998327;28;20057;-79
2023/08/31 08:20:53;;;;;;;33.30;28.83;;;;;;;-148.88;100.00;-17125.47;4999244;28;20027;-78
2023/08/31 08:23:19;;;;;;;32.63;27.50;;;;;;;-148.88;100.00;-17125.47;4999733;28;20069;-79
2023/08/31 08:25:44;;;;;;;31.70;28.20;;;;;;;-148.88;100.00;-17125.47;4998598;28;20072;-79
2023/08/31 08:28:09;;;;;;;36.03;29.35;;;;;;;-148.88;100.00;-17125.47;4999810;28;20031;-80
2023/08/31 08:30:35;;;;;;;34.58;28.38;;;;;;;-148.88;100.00;-17125.47;4999918;28;20022;-79
2023/08/31 08:33:00;;;;;;;34.97;28.63;;;;;;;-148.88;100.00;-17125.47;4998721;28;20037;-79
2023/08/31 08:35:26;;;;;;;31.05;26.95;;;;;;;-148.88;100.00;-17125.47;4997521;28;20022;-78
2023/08/31 08:37:52;;;;;;;30.48;26.13;;;;;;;-148.88;100.00;-17125.47;4999633;28;20061;-77
2023/08/31 08:40:18;;;;;;;29.45;25.13;;;;;;;-148.88;100.00;-17125.47;4999162;28;20026;-78
2023/08/31 08:42:47;;;;;;;30.58;25.48;;;;;;;-148.88;100.00;-17125.47;4999570;28;20029;-78
2023/08/31 08:45:15;;;;;;;28.27;23.98;;;;;;;-148.88;100.00;-17125.47;4998296;28;20041;-77
2023/08/31 08:47:43;;;;;;;27.17;23.05;;;;;;;-148.88;100.00;-17125.47;4998296;28;20041;-77
2023/08/31 08:50:11;;;;;;;26.42;22.83;;;;;;;-148.88;100.00;-17125.47;4998746;28;20512;-77
2023/08/31 08:52:37;;;;;;;25.67;22.10;;;;;;;-148.88;100.00;-17125.47;4999849;28;20025;-78
2023/08/31 08:55:04;;;;;;;24.80;21.15;;;;;;;-148.88;100.00;-17125.47;4998111;28;20038;-79
2023/08/31 08:57:30;;;;;;;24.55;20.85;;;;;;;-148.88;100.00;-17125.47;4999579;28;20377;-78
2023/08/31 08:59:57;;;;;;;25.67;21.38;;;;;;;-148.88;100.00;-17125.47;4999690;28;20033;-77
2023/08/31 09:02:23;;;;;;;25.48;21.00;;;;;;;-148.88;100.00;-17125.47;4997988;28;20060;-78
2023/08/31 09:04:49;;;;;;;23.55;20.13;;;;;;;-148.88;100.00;-17125.47;4999705;28;20030;-77
2023/08/31 09:07:14;;;;;;;24.98;19.40;;;;;;;-148.88;100.00;-17125.47;4999194;28;20030;-77
2023/08/31 09:09:53;;;;;;;22.38;19.60;;;;;;;-148.88;100.00;-17125.47;4998757;28;20109;-78
2023/08/31 09:12:24;;;;;;;21.50;18.83;;;;;;;-148.88;100.00;-17125.47;4998935;28;20427;-77
2023/08/31 09:15:01;;;;;;;22.00;17.83;;;;;;;-148.88;100.00;-17125.47;4997151;28;20049;-78
2023/08/31 09:17:38;;;;;;;21.70;18.85;;;;;;;-148.88;100.00;-17125.47;4999095;28;20474;-79
2023/08/31 09:20:04;;;;;;;20.45;16.50;;;;;;;-148.88;100.00;-17125.47;4998181;28;20026;-78
2023/08/31 09:22:29;;;;;;;22.85;18.30;;;;;;;-148.88;100.00;-17125.47;4997180;28;20019;-78
2023/08/31 09:24:55;;;;;;;21.08;18.23;;;;;;;-148.88;100.00;-17125.47;4998347;28;20022;-77
2023/08/31 09:27:22;;;;;;;20.98;18.13;;;;;;;-148.88;100.00;-17125.47;4997993;28;20026;-77
2023/08/31 09:29:47;;;;;;;21.25;18.75;;;;;;;-148.88;100.00;-17125.47;4997889;28;20033;-77
2023/08/31 09:32:17;;;;;;;20.98;17.70;;;;;;;-148.88;100.00;-17125.47;4997485;28;20018;-77
2023/08/31 09:34:43;;;;;;;20.63;18.42;;;;;;;-148.88;100.00;-17125.47;4997635;28;20105;-77
2023/08/31 09:37:09;;;;;;;18.42;14.40;;;;;;;-148.88;100.00;-17125.47;4997176;28;20101;-77
2023/08/31 09:39:41;;;;;;;14.30;12.80;;;;;;;-148.88;100.00;-17125.47;4996813;28;20100;-77
2023/08/31 09:42:06;;;;;;;16.25;14.25;;;;;;;-148.88;100.00;-17125.47;4995686;28;20026;-78
2023/08/31 09:44:31;;;;;;;17.10;14.88;;;;;;;-148.88;100.00;-17125.47;4997238;28;20034;-78
2023/08/31 09:46:58;;;;;;;17.48;14.55;;;;;;;-148.88;100.00;-17125.47;4998803;28;20030;-78
2023/08/31 09:49:34;;;;;;;12.93;11.25;;;;;;;-148.88;100.00;-17125.47;5037024;23;20087;-85
2023/08/31 09:52:03;;;;;;;15.35;13.10;;;;;;;-148.88;100.00;-17125.47;4994798;28;20022;-88
2023/08/31 09:54:30;;;;;;;16.30;13.93;;;;;;;-148.88;100.00;-17125.47;4995217;28;20026;-88
2023/08/31 09:57:01;;;;;;;14.65;13.07;;;;;;;-148.88;100.00;-17125.47;5010463;28;20224;-86
2023/08/31 09:59:31;;;;;;;13.93;11.82;;;;;;;-148.88;100.00;-17125.47;4993680;28;20034;-86
2023/08/31 10:01:57;;;;;;;11.68;10.07;;;;;;;-148.88;100.00;-17125.47;5009688;23;20124;-76
2023/08/31 10:04:23;;;;;;;11.07;9.85;;;;;;;-148.88;100.00;-17125.47;5014067;28;20121;-76
2023/08/31 10:06:50;;;;;;;10.75;9.50;;;;;;;-148.88;100.00;-17125.47;5013992;28;20034;-76
2023/08/31 10:09:15;;;;;;;13.30;9.48;;;;;;;-148.88;100.00;-17125.47;5013797;28;20030;-76
2023/08/31 10:11:42;;;;;;;10.75;9.48;;;;;;;-148.88;100.00;-17125.47;5013835;28;20024;-77
2023/08/31 10:14:09;;;;;;;11.00;8.95;;;;;;;-148.88;100.00;-17125.47;5012354;28;20030;-76
2023/08/31 10:16:34;;;;;;;10.32;8.60;;;;;;;-148.88;100.00;-17125.47;5013752;28;20108;-76
2023/08/31 10:19:00;;;;;;;10.05;6.95;;;;;;;-148.88;97.95;-17125.47;5012386;28;20117;-76
2023/08/31 10:21:25;;;;;;;9.68;7.32;;;;;;;-148.88;99.23;-17125.47;5013631;28;20033;-76
2023/08/31 10:23:51;;;;;;;7.20;5.57;;;;;;;-148.88;95.99;-17125.47;5013997;28;20025;-76
2023/08/31 10:26:31;;;;;;;7.90;6.07;;;;;;;-148.88;96.24;-17125.47;5012726;28;20036;-77
2023/08/31 10:28:58;;;;;;;7.03;5.70;;;;;;;-148.88;96.31;-17125.47;5013335;28;20428;-76
2023/08/31 10:31:24;;;;;;;7.97;4.95;;;;;;;-148.88;98.53;-17125.47;5014550;28;20030;-76
2023/08/31 10:34:00;;;;;;;7.18;4.32;;;;;;;-148.88;97.80;-17125.47;5014022;28;20026;-76
2023/08/31 10:36:55;;;;;;;5.72;4.50;;;;;;;-148.88;99.80;-17125.47;5012117;28;20033;-76
2023/08/31 10:39:20;;;;;;;5.15;4.35;;;;;;;-148.88;100.00;-17125.47;4999988;28;20034;-77
2023/08/31 10:41:54;;;;;;;7.72;4.45;;;;;;;-148.88;100.00;-17125.47;5011983;28;20032;-77
2023/08/31 10:44:26;;;;;;;7.63;5.22;;;;;;;-148.88;100.00;-17125.47;5013468;28;20029;-77
2023/08/31 10:46:53;;;;;;;7.97;5.63;;;;;;;-148.88;100.00;-17125.47;5011874;28;20030;-77